sensor_id;sensor_type;location;lat;lon;timestamp;P1;durP1;ratioP1;P2;durP2;ratioP2
55270;SDS011;41132;47.162;9.470;2022-10-19T00:07:45;7.93;;;2.97;;
55270;SDS011;41132;47.162;9.470;2022-10-19T00:10:11;7.70;;;2.80;;
55270;SDS011;41132;47.162;9.470;2022-10-19T00:12:36;8.05;;;2.70;;
55270;SDS011;41132;47.162;9.470;2022-10-19T00:25:22;6.75;;;2.47;;
55270;SDS011;41132;47.162;9.470;2022-10-19T01:51:46;6.53;;;2.70;;
55270;SDS011;41132;47.162;9.470;2022-10-19T02:42:16;8.00;;;2.53;;
55270;SDS011;41132;47.162;9.470;2022-10-19T03:02:52;6.10;;;2.80;;
55270;SDS011;41132;47.162;9.470;2022-10-19T03:07:53;6.40;;;2.78;;
55270;SDS011;41132;47.162;9.470;2022-10-19T03:10:18;9.68;;;2.95;;
55270;SDS011;41132;47.162;9.470;2022-10-19T03:12:44;7.72;;;2.75;;
55270;SDS011;41132;47.162;9.470;2022-10-19T03:15:10;6.28;;;2.78;;
55270;SDS011;41132;47.162;9.470;2022-10-19T03:17:39;6.22;;;2.63;;
55270;SDS011;41132;47.162;9.470;2022-10-19T03:20:04;10.45;;;2.83;;
55270;SDS011;41132;47.162;9.470;2022-10-19T03:25:05;8.23;;;3.15;;
55270;SDS011;41132;47.162;9.470;2022-10-19T03:27:31;10.52;;;3.35;;
55270;SDS011;41132;47.162;9.470;2022-10-19T03:29:56;15.35;;;3.72;;
55270;SDS011;41132;47.162;9.470;2022-10-19T03:34:57;8.90;;;2.88;;
55270;SDS011;41132;47.162;9.470;2022-10-19T03:37:22;7.60;;;2.38;;
55270;SDS011;41132;47.162;9.470;2022-10-19T03:44:58;7.45;;;2.83;;
55270;SDS011;41132;47.162;9.470;2022-10-19T03:47:23;5.57;;;3.05;;
55270;SDS011;41132;47.162;9.470;2022-10-19T03:49:48;6.47;;;2.70;;
55270;SDS011;41132;47.162;9.470;2022-10-19T03:52:15;8.10;;;3.28;;
55270;SDS011;41132;47.162;9.470;2022-10-19T03:54:43;6.85;;;3.13;;
55270;SDS011;41132;47.162;9.470;2022-10-19T03:57:09;6.60;;;2.58;;
55270;SDS011;41132;47.162;9.470;2022-10-19T03:59:34;6.43;;;2.90;;
55270;SDS011;41132;47.162;9.470;2022-10-19T04:02:00;5.90;;;2.90;;
55270;SDS011;41132;47.162;9.470;2022-10-19T04:04:25;8.90;;;2.85;;
55270;SDS011;41132;47.162;9.470;2022-10-19T04:06:50;6.10;;;2.63;;
55270;SDS011;41132;47.162;9.470;2022-10-19T04:09:18;6.70;;;2.92;;
55270;SDS011;41132;47.162;9.470;2022-10-19T04:11:45;7.80;;;3.08;;
55270;SDS011;41132;47.162;9.470;2022-10-19T04:14:14;9.35;;;3.15;;
55270;SDS011;41132;47.162;9.470;2022-10-19T04:16:41;7.28;;;3.50;;
55270;SDS011;41132;47.162;9.470;2022-10-19T04:19:07;12.65;;;3.33;;
55270;SDS011;41132;47.162;9.470;2022-10-19T04:21:37;7.80;;;3.20;;
55270;SDS011;41132;47.162;9.470;2022-10-19T04:24:05;7.03;;;3.20;;
55270;SDS011;41132;47.162;9.470;2022-10-19T04:26:32;6.78;;;3.00;;
55270;SDS011;41132;47.162;9.470;2022-10-19T04:29:01;6.88;;;2.88;;
55270;SDS011;41132;47.162;9.470;2022-10-19T04:31:27;7.90;;;2.83;;
55270;SDS011;41132;47.162;9.470;2022-10-19T04:33:53;7.47;;;2.92;;
55270;SDS011;41132;47.162;9.470;2022-10-19T04:36:19;6.30;;;2.90;;
55270;SDS011;41132;47.162;9.470;2022-10-19T04:38:45;8.82;;;2.97;;
55270;SDS011;41132;47.162;9.470;2022-10-19T04:41:11;10.27;;;2.75;;
55270;SDS011;41132;47.162;9.470;2022-10-19T04:43:38;9.02;;;2.88;;
55270;SDS011;41132;47.162;9.470;2022-10-19T04:46:04;6.18;;;2.88;;
55270;SDS011;41132;47.162;9.470;2022-10-19T04:48:38;5.63;;;2.47;;
55270;SDS011;41132;47.162;9.470;2022-10-19T04:51:04;6.22;;;2.60;;
55270;SDS011;41132;47.162;9.470;2022-10-19T04:53:30;6.10;;;2.90;;
55270;SDS011;41132;47.162;9.470;2022-10-19T04:55:56;10.35;;;3.08;;
55270;SDS011;41132;47.162;9.470;2022-10-19T04:58:21;8.73;;;2.88;;
55270;SDS011;41132;47.162;9.470;2022-10-19T05:00:47;7.88;;;2.90;;
55270;SDS011;41132;47.162;9.470;2022-10-19T05:03:13;9.40;;;3.33;;
55270;SDS011;41132;47.162;9.470;2022-10-19T05:05:38;15.25;;;3.70;;
55270;SDS011;41132;47.162;9.470;2022-10-19T05:08:04;6.40;;;2.60;;
55270;SDS011;41132;47.162;9.470;2022-10-19T05:10:29;6.95;;;2.70;;
55270;SDS011;41132;47.162;9.470;2022-10-19T05:12:55;6.03;;;3.15;;
55270;SDS011;41132;47.162;9.470;2022-10-19T05:15:20;7.63;;;3.20;;
55270;SDS011;41132;47.162;9.470;2022-10-19T05:17:46;7.68;;;3.05;;
55270;SDS011;41132;47.162;9.470;2022-10-19T05:20:11;8.07;;;2.75;;
55270;SDS011;41132;47.162;9.470;2022-10-19T05:22:37;9.05;;;3.65;;
55270;SDS011;41132;47.162;9.470;2022-10-19T05:25:03;7.95;;;3.10;;
55270;SDS011;41132;47.162;9.470;2022-10-19T05:27:29;11.13;;;3.00;;
55270;SDS011;41132;47.162;9.470;2022-10-19T05:29:55;11.50;;;3.20;;
55270;SDS011;41132;47.162;9.470;2022-10-19T05:32:20;6.28;;;3.17;;
55270;SDS011;41132;47.162;9.470;2022-10-19T05:34:46;10.95;;;3.00;;
55270;SDS011;41132;47.162;9.470;2022-10-19T05:37:11;9.50;;;3.28;;
55270;SDS011;41132;47.162;9.470;2022-10-19T05:39:36;6.28;;;2.88;;
55270;SDS011;41132;47.162;9.470;2022-10-19T05:42:02;9.43;;;2.70;;
55270;SDS011;41132;47.162;9.470;2022-10-19T05:47:03;9.65;;;3.40;;
55270;SDS011;41132;47.162;9.470;2022-10-19T05:49:28;10.80;;;2.90;;
55270;SDS011;41132;47.162;9.470;2022-10-19T05:51:53;14.00;;;3.38;;
55270;SDS011;41132;47.162;9.470;2022-10-19T05:54:19;14.75;;;3.00;;
55270;SDS011;41132;47.162;9.470;2022-10-19T05:56:45;12.30;;;3.22;;
55270;SDS011;41132;47.162;9.470;2022-10-19T05:59:15;11.55;;;3.30;;
55270;SDS011;41132;47.162;9.470;2022-10-19T06:01:42;7.93;;;3.33;;
55270;SDS011;41132;47.162;9.470;2022-10-19T06:04:08;8.10;;;2.92;;
55270;SDS011;41132;47.162;9.470;2022-10-19T06:06:34;6.70;;;2.83;;
55270;SDS011;41132;47.162;9.470;2022-10-19T06:09:00;7.55;;;2.60;;
55270;SDS011;41132;47.162;9.470;2022-10-19T06:11:27;6.15;;;2.70;;
55270;SDS011;41132;47.162;9.470;2022-10-19T06:13:54;7.15;;;2.50;;
55270;SDS011;41132;47.162;9.470;2022-10-19T06:16:22;7.30;;;2.88;;
55270;SDS011;41132;47.162;9.470;2022-10-19T06:18:48;9.57;;;2.88;;
55270;SDS011;41132;47.162;9.470;2022-10-19T06:23:53;5.47;;;2.47;;
55270;SDS011;41132;47.162;9.470;2022-10-19T06:26:20;8.23;;;2.72;;
55270;SDS011;41132;47.162;9.470;2022-10-19T06:28:46;7.30;;;2.72;;
55270;SDS011;41132;47.162;9.470;2022-10-19T06:31:12;8.90;;;2.90;;
55270;SDS011;41132;47.162;9.470;2022-10-19T06:33:39;6.20;;;2.60;;
55270;SDS011;41132;47.162;9.470;2022-10-19T06:36:09;9.13;;;2.90;;
55270;SDS011;41132;47.162;9.470;2022-10-19T06:38:36;9.60;;;2.65;;
55270;SDS011;41132;47.162;9.470;2022-10-19T06:41:02;6.75;;;3.00;;
55270;SDS011;41132;47.162;9.470;2022-10-19T06:43:28;10.18;;;2.55;;
55270;SDS011;41132;47.162;9.470;2022-10-19T06:45:53;6.32;;;2.80;;
55270;SDS011;41132;47.162;9.470;2022-10-19T06:48:19;9.35;;;2.70;;
55270;SDS011;41132;47.162;9.470;2022-10-19T06:53:21;10.55;;;2.72;;
55270;SDS011;41132;47.162;9.470;2022-10-19T06:55:46;8.02;;;2.80;;
55270;SDS011;41132;47.162;9.470;2022-10-19T06:58:12;8.85;;;2.80;;
55270;SDS011;41132;47.162;9.470;2022-10-19T07:00:37;9.50;;;2.97;;
55270;SDS011;41132;47.162;9.470;2022-10-19T08:09:32;6.35;;;1.88;;
55270;SDS011;41132;47.162;9.470;2022-10-19T08:11:58;8.55;;;2.20;;
55270;SDS011;41132;47.162;9.470;2022-10-19T08:21:58;9.18;;;2.33;;
55270;SDS011;41132;47.162;9.470;2022-10-19T08:24:23;7.72;;;2.17;;
55270;SDS011;41132;47.162;9.470;2022-10-19T08:26:49;5.18;;;2.35;;
55270;SDS011;41132;47.162;9.470;2022-10-19T08:29:16;10.25;;;3.15;;
55270;SDS011;41132;47.162;9.470;2022-10-19T08:31:44;8.50;;;2.40;;
55270;SDS011;41132;47.162;9.470;2022-10-19T08:36:45;7.38;;;2.55;;
55270;SDS011;41132;47.162;9.470;2022-10-19T08:39:11;9.73;;;3.50;;
55270;SDS011;41132;47.162;9.470;2022-10-19T09:00:01;6.85;;;2.50;;
55270;SDS011;41132;47.162;9.470;2022-10-19T09:05:15;5.85;;;2.50;;
55270;SDS011;41132;47.162;9.470;2022-10-19T09:07:59;8.38;;;2.58;;
55270;SDS011;41132;47.162;9.470;2022-10-19T09:10:25;10.10;;;2.35;;
55270;SDS011;41132;47.162;9.470;2022-10-19T09:20:40;9.55;;;2.40;;
55270;SDS011;41132;47.162;9.470;2022-10-19T09:23:18;8.57;;;2.70;;
55270;SDS011;41132;47.162;9.470;2022-10-19T09:25:46;11.18;;;2.67;;
55270;SDS011;41132;47.162;9.470;2022-10-19T09:28:27;8.18;;;2.25;;
55270;SDS011;41132;47.162;9.470;2022-10-19T09:30:59;5.00;;;1.80;;
55270;SDS011;41132;47.162;9.470;2022-10-19T09:33:27;5.90;;;2.28;;
55270;SDS011;41132;47.162;9.470;2022-10-19T09:35:56;9.50;;;2.13;;
55270;SDS011;41132;47.162;9.470;2022-10-19T09:38:24;8.20;;;2.30;;
55270;SDS011;41132;47.162;9.470;2022-10-19T09:40:52;7.63;;;2.22;;
55270;SDS011;41132;47.162;9.470;2022-10-19T09:43:18;7.07;;;2.22;;
55270;SDS011;41132;47.162;9.470;2022-10-19T09:46:07;5.10;;;1.80;;
55270;SDS011;41132;47.162;9.470;2022-10-19T09:48:38;6.68;;;2.15;;
55270;SDS011;41132;47.162;9.470;2022-10-19T11:02:11;7.88;;;2.53;;
55270;SDS011;41132;47.162;9.470;2022-10-19T11:04:50;7.75;;;3.00;;
55270;SDS011;41132;47.162;9.470;2022-10-19T11:07:20;7.65;;;2.63;;
55270;SDS011;41132;47.162;9.470;2022-10-19T11:09:52;8.45;;;2.75;;
55270;SDS011;41132;47.162;9.470;2022-10-19T11:12:32;10.30;;;2.80;;
55270;SDS011;41132;47.162;9.470;2022-10-19T11:41:24;10.57;;;3.28;;
55270;SDS011;41132;47.162;9.470;2022-10-19T11:49:09;6.63;;;2.40;;
55270;SDS011;41132;47.162;9.470;2022-10-19T13:11:17;9.73;;;3.42;;
55270;SDS011;41132;47.162;9.470;2022-10-19T13:16:57;10.55;;;3.30;;
55270;SDS011;41132;47.162;9.470;2022-10-19T13:19:26;10.85;;;3.60;;
55270;SDS011;41132;47.162;9.470;2022-10-19T13:24:43;7.90;;;3.45;;
55270;SDS011;41132;47.162;9.470;2022-10-19T13:38:25;9.98;;;3.67;;
55270;SDS011;41132;47.162;9.470;2022-10-19T13:41:21;8.23;;;3.60;;
55270;SDS011;41132;47.162;9.470;2022-10-19T13:52:02;7.95;;;3.40;;
55270;SDS011;41132;47.162;9.470;2022-10-19T13:54:53;8.07;;;3.38;;
55270;SDS011;41132;47.162;9.470;2022-10-19T14:09:14;6.95;;;3.50;;
55270;SDS011;41132;47.162;9.470;2022-10-19T14:11:50;9.23;;;3.65;;
55270;SDS011;41132;47.162;9.470;2022-10-19T14:14:21;7.57;;;3.70;;
55270;SDS011;41132;47.162;9.470;2022-10-19T14:16:59;10.25;;;3.92;;
55270;SDS011;41132;47.162;9.470;2022-10-19T14:19:30;7.20;;;3.90;;
55270;SDS011;41132;47.162;9.470;2022-10-19T14:25:18;11.57;;;4.35;;
55270;SDS011;41132;47.162;9.470;2022-10-19T14:27:46;6.90;;;4.00;;
55270;SDS011;41132;47.162;9.470;2022-10-19T14:30:36;8.93;;;4.35;;
55270;SDS011;41132;47.162;9.470;2022-10-19T14:33:05;7.93;;;4.35;;
55270;SDS011;41132;47.162;9.470;2022-10-19T14:35:33;9.73;;;4.28;;
55270;SDS011;41132;47.162;9.470;2022-10-19T14:38:02;6.80;;;3.78;;
55270;SDS011;41132;47.162;9.470;2022-10-19T14:40:30;8.45;;;4.20;;
55270;SDS011;41132;47.162;9.470;2022-10-19T14:42:58;8.55;;;4.25;;
55270;SDS011;41132;47.162;9.470;2022-10-19T14:45:26;9.68;;;4.30;;
55270;SDS011;41132;47.162;9.470;2022-10-19T14:50:18;10.88;;;4.35;;
55270;SDS011;41132;47.162;9.470;2022-10-19T14:52:47;7.13;;;3.83;;
55270;SDS011;41132;47.162;9.470;2022-10-19T14:55:18;11.15;;;4.05;;
55270;SDS011;41132;47.162;9.470;2022-10-19T14:57:46;11.07;;;4.10;;
55270;SDS011;41132;47.162;9.470;2022-10-19T15:00:17;7.80;;;3.92;;
55270;SDS011;41132;47.162;9.470;2022-10-19T15:03:00;8.32;;;4.65;;
55270;SDS011;41132;47.162;9.470;2022-10-19T15:05:32;14.60;;;4.13;;
55270;SDS011;41132;47.162;9.470;2022-10-19T15:08:09;7.97;;;3.90;;
55270;SDS011;41132;47.162;9.470;2022-10-19T15:52:16;8.85;;;4.57;;
55270;SDS011;41132;47.162;9.470;2022-10-19T15:54:46;11.68;;;4.88;;
55270;SDS011;41132;47.162;9.470;2022-10-19T15:57:51;9.18;;;4.43;;
55270;SDS011;41132;47.162;9.470;2022-10-19T16:00:12;9.70;;;4.75;;
55270;SDS011;41132;47.162;9.470;2022-10-19T16:02:39;9.55;;;4.90;;
55270;SDS011;41132;47.162;9.470;2022-10-19T16:05:05;10.80;;;5.07;;
55270;SDS011;41132;47.162;9.470;2022-10-19T16:07:31;10.95;;;5.63;;
55270;SDS011;41132;47.162;9.470;2022-10-19T16:09:58;10.95;;;5.80;;
55270;SDS011;41132;47.162;9.470;2022-10-19T16:12:24;11.70;;;6.65;;
55270;SDS011;41132;47.162;9.470;2022-10-19T17:58:30;7.53;;;3.60;;
55270;SDS011;41132;47.162;9.470;2022-10-19T18:00:57;9.40;;;3.67;;
55270;SDS011;41132;47.162;9.470;2022-10-19T18:03:23;6.82;;;3.17;;
55270;SDS011;41132;47.162;9.470;2022-10-19T18:05:54;7.68;;;3.50;;
55270;SDS011;41132;47.162;9.470;2022-10-19T18:08:24;8.48;;;4.28;;
55270;SDS011;41132;47.162;9.470;2022-10-19T18:31:31;7.45;;;4.35;;
55270;SDS011;41132;47.162;9.470;2022-10-19T18:36:32;11.13;;;4.55;;
55270;SDS011;41132;47.162;9.470;2022-10-19T18:38:59;8.50;;;4.57;;
55270;SDS011;41132;47.162;9.470;2022-10-19T18:41:26;10.30;;;4.40;;
55270;SDS011;41132;47.162;9.470;2022-10-19T18:43:54;6.68;;;3.97;;
55270;SDS011;41132;47.162;9.470;2022-10-19T18:49:03;8.07;;;3.65;;
55270;SDS011;41132;47.162;9.470;2022-10-19T18:51:30;10.25;;;4.40;;
55270;SDS011;41132;47.162;9.470;2022-10-19T18:53:56;17.50;;;5.03;;
55270;SDS011;41132;47.162;9.470;2022-10-19T18:56:22;10.68;;;4.07;;
55270;SDS011;41132;47.162;9.470;2022-10-19T18:58:48;7.38;;;3.78;;
55270;SDS011;41132;47.162;9.470;2022-10-19T19:01:15;13.77;;;4.18;;
55270;SDS011;41132;47.162;9.470;2022-10-19T19:03:43;12.45;;;3.88;;
55270;SDS011;41132;47.162;9.470;2022-10-19T19:06:11;11.57;;;4.40;;
55270;SDS011;41132;47.162;9.470;2022-10-19T19:08:38;9.15;;;4.60;;
55270;SDS011;41132;47.162;9.470;2022-10-19T19:11:08;8.68;;;4.53;;
55270;SDS011;41132;47.162;9.470;2022-10-19T19:13:34;7.72;;;4.30;;
55270;SDS011;41132;47.162;9.470;2022-10-19T19:15:59;13.95;;;5.28;;
55270;SDS011;41132;47.162;9.470;2022-10-19T19:18:25;8.48;;;4.60;;
55270;SDS011;41132;47.162;9.470;2022-10-19T19:20:51;9.70;;;4.70;;
55270;SDS011;41132;47.162;9.470;2022-10-19T19:23:16;8.77;;;4.97;;
55270;SDS011;41132;47.162;9.470;2022-10-19T19:25:42;9.77;;;5.97;;
55270;SDS011;41132;47.162;9.470;2022-10-19T19:54:13;8.88;;;5.68;;
55270;SDS011;41132;47.162;9.470;2022-10-19T19:56:38;10.07;;;6.20;;
55270;SDS011;41132;47.162;9.470;2022-10-19T19:59:06;12.15;;;5.70;;
55270;SDS011;41132;47.162;9.470;2022-10-19T20:01:31;12.98;;;5.10;;
55270;SDS011;41132;47.162;9.470;2022-10-19T20:03:57;9.20;;;3.85;;
55270;SDS011;41132;47.162;9.470;2022-10-19T20:06:23;7.78;;;3.90;;
55270;SDS011;41132;47.162;9.470;2022-10-19T20:08:49;8.30;;;4.13;;
55270;SDS011;41132;47.162;9.470;2022-10-19T20:19:02;9.63;;;3.42;;
55270;SDS011;41132;47.162;9.470;2022-10-19T20:21:30;8.32;;;3.55;;
55270;SDS011;41132;47.162;9.470;2022-10-19T21:00:19;11.70;;;5.20;;
55270;SDS011;41132;47.162;9.470;2022-10-19T21:02:44;11.50;;;5.40;;
55270;SDS011;41132;47.162;9.470;2022-10-19T21:05:10;8.80;;;4.70;;
55270;SDS011;41132;47.162;9.470;2022-10-19T21:07:35;10.75;;;5.15;;
55270;SDS011;41132;47.162;9.470;2022-10-19T21:10:00;10.82;;;4.95;;
55270;SDS011;41132;47.162;9.470;2022-10-19T21:12:26;10.63;;;4.13;;
55270;SDS011;41132;47.162;9.470;2022-10-19T21:14:51;11.07;;;4.72;;
55270;SDS011;41132;47.162;9.470;2022-10-19T21:17:16;8.60;;;3.90;;
55270;SDS011;41132;47.162;9.470;2022-10-19T21:19:42;11.20;;;4.93;;
55270;SDS011;41132;47.162;9.470;2022-10-19T21:22:07;8.85;;;5.18;;
55270;SDS011;41132;47.162;9.470;2022-10-19T21:24:34;9.93;;;4.53;;
55270;SDS011;41132;47.162;9.470;2022-10-19T21:27:00;9.05;;;4.47;;
55270;SDS011;41132;47.162;9.470;2022-10-19T21:29:28;11.80;;;5.25;;
55270;SDS011;41132;47.162;9.470;2022-10-19T21:31:54;8.10;;;4.05;;
55270;SDS011;41132;47.162;9.470;2022-10-19T21:34:20;9.60;;;5.03;;
55270;SDS011;41132;47.162;9.470;2022-10-19T21:36:48;8.60;;;4.35;;
55270;SDS011;41132;47.162;9.470;2022-10-19T21:39:13;9.27;;;4.90;;
55270;SDS011;41132;47.162;9.470;2022-10-19T21:41:39;7.93;;;4.35;;
55270;SDS011;41132;47.162;9.470;2022-10-19T21:44:04;10.65;;;4.18;;
55270;SDS011;41132;47.162;9.470;2022-10-19T21:46:30;10.50;;;4.35;;
55270;SDS011;41132;47.162;9.470;2022-10-19T21:48:55;8.63;;;4.93;;
55270;SDS011;41132;47.162;9.470;2022-10-19T21:53:56;7.10;;;3.40;;
55270;SDS011;41132;47.162;9.470;2022-10-19T21:56:21;11.43;;;3.63;;
55270;SDS011;41132;47.162;9.470;2022-10-19T21:58:47;8.00;;;3.30;;
55270;SDS011;41132;47.162;9.470;2022-10-19T22:01:16;8.95;;;3.35;;
55270;SDS011;41132;47.162;9.470;2022-10-19T22:03:42;8.48;;;2.97;;
55270;SDS011;41132;47.162;9.470;2022-10-19T22:06:08;7.32;;;3.58;;
55270;SDS011;41132;47.162;9.470;2022-10-19T22:08:34;7.45;;;3.05;;
55270;SDS011;41132;47.162;9.470;2022-10-19T22:11:10;6.28;;;3.30;;
55270;SDS011;41132;47.162;9.470;2022-10-19T22:13:37;8.55;;;3.40;;
55270;SDS011;41132;47.162;9.470;2022-10-19T22:18:37;8.40;;;4.05;;
55270;SDS011;41132;47.162;9.470;2022-10-19T22:21:04;9.60;;;4.75;;
55270;SDS011;41132;47.162;9.470;2022-10-19T22:26:14;10.10;;;5.47;;
55270;SDS011;41132;47.162;9.470;2022-10-19T22:31:07;11.52;;;4.97;;
55270;SDS011;41132;47.162;9.470;2022-10-19T22:44:07;8.93;;;4.53;;
55270;SDS011;41132;47.162;9.470;2022-10-19T22:46:32;7.28;;;4.60;;
55270;SDS011;41132;47.162;9.470;2022-10-19T22:51:33;9.02;;;4.03;;
55270;SDS011;41132;47.162;9.470;2022-10-19T22:53:58;8.35;;;3.88;;
55270;SDS011;41132;47.162;9.470;2022-10-19T22:56:24;10.40;;;4.03;;
55270;SDS011;41132;47.162;9.470;2022-10-19T22:58:50;7.03;;;4.03;;
55270;SDS011;41132;47.162;9.470;2022-10-19T23:03:50;7.90;;;4.10;;
55270;SDS011;41132;47.162;9.470;2022-10-19T23:06:16;7.93;;;4.53;;
55270;SDS011;41132;47.162;9.470;2022-10-19T23:11:17;8.77;;;4.40;;
55270;SDS011;41132;47.162;9.470;2022-10-19T23:21:27;8.05;;;4.30;;
55270;SDS011;41132;47.162;9.470;2022-10-19T23:34:13;9.02;;;4.57;;
55270;SDS011;41132;47.162;9.470;2022-10-19T23:54:45;9.27;;;4.47;;
